Terminal Aerodrome Forecast
Issued by NWS Wilmington, OH

Home | Current Version | Previous Version | Text Only | Print | Product List | Glossary On
Versions: 1 2 3 4 5 6 7 8 9 10 11 12 13 14 15 16 17 18 19
134
FTUS41 KILN 192344 AAA
TAFCMH
TAF AMD
KCMH 192344Z 2000/2024 28013G18KT P6SM OVC027
      TEMPO 2000/2004 OVC035
     FM200400 27009KT P6SM BKN035
     FM200600 26008KT P6SM SCT035
     FM201200 21007KT P6SM FEW250
     FM201700 21012G18KT P6SM FEW250=

USA.gov is the U.S. government's official web portal to all federal, state and local government web resources and services.